createdAt,value
2023-04-02T00:02:47.709Z,99.36
2023-04-02T00:05:53.410Z,100.00
2023-04-02T00:08:59.480Z,100.00
2023-04-02T00:12:16.099Z,100.00
2023-04-02T00:15:18.607Z,100.00
2023-04-02T00:18:22.328Z,100.00
2023-04-02T00:21:34.691Z,100.00
2023-04-02T00:24:39.848Z,100.00
2023-04-02T00:27:43.675Z,100.00
2023-04-02T00:30:47.682Z,100.00
2023-04-02T00:33:51.286Z,100.00
2023-04-02T00:36:54.179Z,100.00
2023-04-02T00:40:02.681Z,99.79
2023-04-02T00:43:07.324Z,98.00
2023-04-02T00:46:15.045Z,95.77
2023-04-02T00:49:21.877Z,94.93
2023-04-02T00:52:26.584Z,93.95
2023-04-02T00:55:36.868Z,93.37
2023-04-02T00:58:40.522Z,93.47
2023-04-02T01:01:44.749Z,92.24
2023-04-02T01:04:54.813Z,92.00
2023-04-02T01:08:06.685Z,91.89
2023-04-02T01:11:15.329Z,92.64
2023-04-02T01:14:24.495Z,92.18
2023-04-02T01:17:45.588Z,93.37
2023-04-02T01:20:49.068Z,93.52
2023-04-02T01:23:55.227Z,95.56
2023-04-02T01:27:19.005Z,96.40
2023-04-02T01:30:22.713Z,95.06
2023-04-02T01:33:29.076Z,96.42
2023-04-02T01:36:53.627Z,97.47
2023-04-02T01:40:21.780Z,95.57
2023-04-02T01:43:29.476Z,94.17
2023-04-02T01:46:34.249Z,94.07
2023-04-02T01:49:37.705Z,95.13
2023-04-02T01:52:43.747Z,94.52
2023-04-02T01:55:51.550Z,94.69
2023-04-02T01:58:55.065Z,95.40
2023-04-02T02:02:04.314Z,97.97
2023-04-02T02:05:14.874Z,97.03
2023-04-02T02:08:34.775Z,96.73
2023-04-02T02:11:39.089Z,96.83
2023-04-02T02:14:52.813Z,97.49
2023-04-02T02:18:00.236Z,98.51
2023-04-02T02:21:06.185Z,98.37
2023-04-02T02:24:19.543Z,97.79
2023-04-02T02:27:25.161Z,97.57
2023-04-02T02:30:30.215Z,97.79
2023-04-02T02:33:59.734Z,97.66
2023-04-02T02:37:08.249Z,96.99
2023-04-02T02:40:19.106Z,97.81
2023-04-02T02:43:22.106Z,98.01
2023-04-02T02:46:26.466Z,96.57
2023-04-02T02:49:33.445Z,95.42
2023-04-02T02:52:37.337Z,94.33
2023-04-02T02:55:40.646Z,94.69
2023-04-02T02:58:56.303Z,92.87
2023-04-02T03:01:59.597Z,94.81
2023-04-02T03:05:05.683Z,95.14
2023-04-02T03:08:13.789Z,96.16
2023-04-02T03:11:25.152Z,98.21
2023-04-02T03:14:54.805Z,98.90
2023-04-02T03:18:08.552Z,100.00
2023-04-02T03:21:14.190Z,100.00
2023-04-02T03:24:37.128Z,100.00
2023-04-02T03:27:45.154Z,100.00
2023-04-02T03:30:59.298Z,100.00
2023-04-02T03:34:05.380Z,100.00
2023-04-02T03:37:23.706Z,100.00
2023-04-02T03:40:29.594Z,100.00
2023-04-02T03:43:35.905Z,100.00
2023-04-02T03:46:41.850Z,100.00
2023-04-02T03:49:50.725Z,100.00
2023-04-02T03:52:53.956Z,100.00
2023-04-02T03:55:58.363Z,100.00
2023-04-02T03:59:28.497Z,100.00
2023-04-02T04:02:47.181Z,100.00
2023-04-02T04:05:52.988Z,100.00
2023-04-02T04:09:17.372Z,97.95
2023-04-02T04:12:22.222Z,97.81
2023-04-02T04:15:32.379Z,97.21
2023-04-02T04:18:58.314Z,96.04
2023-04-02T04:22:21.904Z,95.09
2023-04-02T04:25:24.772Z,94.68
2023-04-02T04:28:32.693Z,94.02
2023-04-02T04:31:40.330Z,93.96
2023-04-02T04:34:52.207Z,94.28
2023-04-02T04:38:04.324Z,96.22
2023-04-02T04:41:14.461Z,95.24
2023-04-02T04:44:21.754Z,96.24
2023-04-02T04:47:34.347Z,96.89
2023-04-02T04:50:59.179Z,95.91
2023-04-02T04:54:03.072Z,96.81
2023-04-02T04:57:07.083Z,98.21
2023-04-02T05:00:16.504Z,97.65
2023-04-02T05:03:37.872Z,97.17
2023-04-02T05:06:56.836Z,97.37
2023-04-02T05:10:04.608Z,98.38
2023-04-02T05:13:12.539Z,96.71
2023-04-02T05:16:25.564Z,94.67
2023-04-02T05:19:39.395Z,92.82
2023-04-02T05:22:58.602Z,89.30
2023-04-02T05:26:05.221Z,86.79
2023-04-02T05:29:21.929Z,82.54
2023-04-02T05:32:28.151Z,75.60
2023-04-02T05:35:34.970Z,77.47
2023-04-02T05:38:40.165Z,80.30
2023-04-02T05:41:45.816Z,81.97
2023-04-02T05:45:07.605Z,82.22
2023-04-02T05:48:27.336Z,81.89
2023-04-02T05:51:36.688Z,80.59
2023-04-02T05:54:59.821Z,73.85
2023-04-02T05:58:29.420Z,75.20
2023-04-02T06:01:38.988Z,77.74
2023-04-02T06:04:47.910Z,80.13
2023-04-02T06:07:56.529Z,79.02
2023-04-02T06:11:09.252Z,79.57
2023-04-02T06:14:14.669Z,79.53
2023-04-02T06:17:18.627Z,82.03
2023-04-02T06:20:21.795Z,80.73
2023-04-02T06:23:24.563Z,78.09
2023-04-02T06:26:27.589Z,75.38
2023-04-02T06:29:41.306Z,73.23
2023-04-02T06:32:45.353Z,74.38
2023-04-02T06:35:51.642Z,75.80
2023-04-02T06:38:56.661Z,75.44
2023-04-02T06:42:05.183Z,75.61
2023-04-02T06:45:15.535Z,67.31
2023-04-02T06:48:20.324Z,61.71
2023-04-02T06:51:24.700Z,58.88
2023-04-02T06:54:27.351Z,57.32
2023-04-02T06:57:33.657Z,60.85
2023-04-02T07:00:40.021Z,65.77
2023-04-02T07:03:42.705Z,70.56
2023-04-02T07:06:45.200Z,72.02
2023-04-02T07:09:48.970Z,74.16
2023-04-02T07:12:51.328Z,72.33
2023-04-02T07:15:55.242Z,73.06
2023-04-02T07:19:01.249Z,73.03
2023-04-02T07:22:05.865Z,73.00
2023-04-02T07:25:10.151Z,73.21
2023-04-02T07:28:16.109Z,73.24
2023-04-02T07:31:24.827Z,72.77
2023-04-02T07:34:28.460Z,71.62
2023-04-02T07:37:32.045Z,70.03
2023-04-02T07:40:35.138Z,69.40
2023-04-02T07:43:38.749Z,67.79
2023-04-02T07:46:41.982Z,66.86
2023-04-02T07:49:44.666Z,66.80
2023-04-02T07:52:47.186Z,69.02
2023-04-02T07:55:52.652Z,69.14
2023-04-02T07:58:55.347Z,69.24
2023-04-02T08:01:58.321Z,68.44
2023-04-02T08:05:03.019Z,68.10
2023-04-02T08:08:05.792Z,67.53
2023-04-02T08:11:09.062Z,67.88
2023-04-02T08:14:12.017Z,64.72
2023-04-02T08:17:14.894Z,66.90
2023-04-02T08:20:19.290Z,67.18
2023-04-02T08:23:21.914Z,66.69
2023-04-02T08:26:24.966Z,65.43
2023-04-02T08:29:32.825Z,66.69
2023-04-02T08:32:36.369Z,65.48
2023-04-02T08:35:39.643Z,65.67
2023-04-02T08:38:42.584Z,67.22
2023-04-02T08:41:56.432Z,65.19
2023-04-02T08:45:21.179Z,64.14
2023-04-02T08:48:26.885Z,65.68
2023-04-02T08:51:32.963Z,66.33
2023-04-02T08:54:44.130Z,65.18
2023-04-02T08:58:07.302Z,65.09
2023-04-02T09:01:22.165Z,66.39
2023-04-02T09:04:27.137Z,65.11
2023-04-02T09:07:30.999Z,67.01
2023-04-02T09:10:43.301Z,65.32
2023-04-02T09:13:49.386Z,63.55
2023-04-02T09:16:54.458Z,63.89
2023-04-02T09:20:19.649Z,63.57
2023-04-02T09:23:26.323Z,64.23
2023-04-02T09:26:30.873Z,62.46
2023-04-02T09:29:33.506Z,62.77
2023-04-02T09:32:42.557Z,66.25
2023-04-02T09:35:51.420Z,65.25
2023-04-02T09:39:14.251Z,64.14
2023-04-02T09:42:34.879Z,63.77
2023-04-02T09:45:37.592Z,63.25
2023-04-02T09:48:50.949Z,61.43
2023-04-02T09:52:14.115Z,63.58
2023-04-02T09:55:16.541Z,61.51
2023-04-02T09:58:19.378Z,61.14
2023-04-02T10:01:29.950Z,60.21
2023-04-02T10:04:45.048Z,63.00
2023-04-02T10:07:49.292Z,65.75
2023-04-02T10:10:53.814Z,65.51
2023-04-02T10:14:11.546Z,63.70
2023-04-02T10:17:24.268Z,65.37
2023-04-02T10:20:30.504Z,63.48
2023-04-02T10:23:35.451Z,61.74
2023-04-02T10:26:50.030Z,63.23
2023-04-02T10:29:58.652Z,62.27
2023-04-02T10:33:17.705Z,64.72
2023-04-02T10:36:30.646Z,64.06
2023-04-02T10:39:42.127Z,64.50
2023-04-02T10:43:04.696Z,64.93
2023-04-02T10:46:28.513Z,64.33
2023-04-02T10:49:40.203Z,63.33
2023-04-02T10:52:56.460Z,62.76
2023-04-02T10:56:03.755Z,61.34
2023-04-02T10:59:26.540Z,63.03
2023-04-02T11:02:29.278Z,62.52
2023-04-02T11:05:46.277Z,62.65
2023-04-02T11:08:52.020Z,62.46
2023-04-02T11:11:57.007Z,61.27
2023-04-02T11:15:00.160Z,61.08
2023-04-02T11:18:02.824Z,61.50
2023-04-02T11:21:08.247Z,60.92
2023-04-02T11:24:34.133Z,60.04
2023-04-02T11:27:38.076Z,58.98
2023-04-02T11:30:41.267Z,59.68
2023-04-02T11:33:46.274Z,60.99
2023-04-02T11:36:53.308Z,59.33
2023-04-02T11:40:00.320Z,60.38
2023-04-02T11:43:22.615Z,61.00
2023-04-02T11:46:28.094Z,61.40
2023-04-02T11:49:38.003Z,60.64
2023-04-02T11:52:47.646Z,62.50
2023-04-02T11:56:10.390Z,62.44
2023-04-02T11:59:21.717Z,61.17
2023-04-02T12:02:27.778Z,61.86
2023-04-02T12:05:38.634Z,61.50
2023-04-02T12:08:54.218Z,58.85
2023-04-02T12:12:01.621Z,60.52
2023-04-02T12:15:09.194Z,60.44
2023-04-02T12:18:17.156Z,60.24
2023-04-02T12:21:21.550Z,56.55
2023-04-02T12:24:25.677Z,58.50
2023-04-02T12:27:30.319Z,54.66
2023-04-02T12:30:33.613Z,57.17
2023-04-02T12:33:41.073Z,57.37
2023-04-02T12:36:56.781Z,57.75
2023-04-02T12:40:02.040Z,56.24
2023-04-02T12:43:05.528Z,55.88
2023-04-02T12:46:09.808Z,56.97
2023-04-02T12:49:31.282Z,57.55
2023-04-02T12:52:35.288Z,59.44
2023-04-02T12:55:39.789Z,61.69
2023-04-02T12:58:46.271Z,63.32
2023-04-02T13:01:59.598Z,62.14
2023-04-02T13:05:05.789Z,60.59
2023-04-02T13:08:26.094Z,60.17
2023-04-02T13:11:36.986Z,56.83
2023-04-02T13:14:39.884Z,56.70
2023-04-02T13:17:44.978Z,55.25
2023-04-02T13:21:05.027Z,54.43
2023-04-02T13:24:17.923Z,55.18
2023-04-02T13:27:22.540Z,54.56
2023-04-02T13:30:27.351Z,54.09
2023-04-02T13:33:30.670Z,55.46
2023-04-02T13:36:33.862Z,57.34
2023-04-02T13:39:37.054Z,56.54
2023-04-02T13:42:40.436Z,53.80
2023-04-02T13:45:44.024Z,53.99
2023-04-02T13:48:47.070Z,55.37
2023-04-02T13:52:00.415Z,56.08
2023-04-02T13:55:06.974Z,55.13
2023-04-02T13:58:11.529Z,55.44
2023-04-02T14:01:15.152Z,54.94
2023-04-02T14:04:22.628Z,54.19
2023-04-02T14:07:26.895Z,52.23
2023-04-02T14:10:49.444Z,52.92
2023-04-02T14:14:18.675Z,51.70
2023-04-02T14:17:44.008Z,51.89
2023-04-02T14:20:47.984Z,54.71
2023-04-02T14:23:51.600Z,56.53
2023-04-02T14:27:13.350Z,55.63
2023-04-02T14:30:23.317Z,56.45
2023-04-02T14:33:57.138Z,55.08
2023-04-02T14:37:06.744Z,55.67
2023-04-02T14:40:29.725Z,57.58
2023-04-02T14:43:53.797Z,58.21
2023-04-02T14:47:20.879Z,60.47
2023-04-02T14:50:40.921Z,62.00
2023-04-02T14:53:43.925Z,64.54
2023-04-02T14:56:51.623Z,67.08
2023-04-02T15:00:27.379Z,67.71
2023-04-02T15:03:34.500Z,67.73
2023-04-02T15:06:43.232Z,68.81
2023-04-02T15:09:50.489Z,71.83
2023-04-02T15:12:54.409Z,75.03
2023-04-02T15:16:06.231Z,79.46
2023-04-02T15:19:16.183Z,81.55
2023-04-02T15:22:21.407Z,95.05
2023-04-02T15:25:33.874Z,100.00
2023-04-02T15:28:42.137Z,100.00
2023-04-02T15:31:45.885Z,100.00
2023-04-02T15:34:58.140Z,100.00
2023-04-02T15:38:05.121Z,100.00
2023-04-02T15:41:06.944Z,100.00
2023-04-02T15:44:11.000Z,100.00
2023-04-02T15:47:22.631Z,100.00
2023-04-02T15:50:44.153Z,100.00
2023-04-02T15:53:48.242Z,100.00
2023-04-02T15:57:04.271Z,100.00
2023-04-02T16:00:30.679Z,100.00
2023-04-02T16:03:46.704Z,100.00
2023-04-02T16:07:08.220Z,100.00
2023-04-02T16:10:13.077Z,100.00
2023-04-02T16:13:18.171Z,100.00
2023-04-02T16:16:34.152Z,100.00
2023-04-02T16:19:40.009Z,100.00
2023-04-02T16:22:59.496Z,100.00
2023-04-02T16:26:13.072Z,100.00
2023-04-02T16:29:20.890Z,100.00
2023-04-02T16:32:22.836Z,100.00
2023-04-02T16:39:17.056Z,100.00
2023-04-02T16:42:34.269Z,100.00
2023-04-02T16:45:49.307Z,100.00
2023-04-02T16:48:56.248Z,100.00
2023-04-02T16:52:15.067Z,100.00
2023-04-02T16:55:24.134Z,100.00
2023-04-02T16:58:34.880Z,100.00
2023-04-02T17:01:59.445Z,100.00
2023-04-02T17:05:01.549Z,100.00
2023-04-02T17:08:24.029Z,100.00
2023-04-02T17:12:01.486Z,100.00
2023-04-02T17:15:11.662Z,100.00
2023-04-02T17:18:24.837Z,100.00
2023-04-02T17:21:31.197Z,100.00
2023-04-02T17:24:33.118Z,100.00
2023-04-02T17:27:41.280Z,100.00
2023-04-02T17:30:51.212Z,100.00
2023-04-02T17:33:53.587Z,100.00
2023-04-02T17:37:11.086Z,100.00
2023-04-02T17:40:22.014Z,100.00
2023-04-02T17:43:37.384Z,100.00
2023-04-02T17:46:45.400Z,100.00
2023-04-02T17:50:06.470Z,100.00
2023-04-02T17:53:11.315Z,100.00
2023-04-02T17:56:28.934Z,100.00
2023-04-02T17:59:41.256Z,100.00
2023-04-02T18:03:00.396Z,100.00
2023-04-02T18:06:11.787Z,100.00
2023-04-02T18:09:17.188Z,100.00
2023-04-02T18:12:19.423Z,100.00
2023-04-02T18:15:31.013Z,100.00
2023-04-02T18:18:36.331Z,100.00
2023-04-02T18:21:44.790Z,100.00
2023-04-02T18:24:47.144Z,100.00
2023-04-02T18:27:59.306Z,100.00
2023-04-02T18:31:20.962Z,100.00
2023-04-02T18:34:43.003Z,98.49
2023-04-02T18:37:54.762Z,99.73
2023-04-02T18:41:03.546Z,99.41
2023-04-02T18:44:25.285Z,97.03
2023-04-02T18:47:32.970Z,98.39
2023-04-02T18:50:38.698Z,98.41
2023-04-02T18:53:43.989Z,95.80
2023-04-02T18:56:47.423Z,94.75
2023-04-02T18:59:55.520Z,94.01
2023-04-02T19:03:05.804Z,94.42
2023-04-02T19:06:13.164Z,94.18
2023-04-02T19:09:21.406Z,96.19
2023-04-02T19:12:25.027Z,96.78
2023-04-02T19:15:39.767Z,94.98
2023-04-02T19:19:01.492Z,95.46
2023-04-02T19:22:34.864Z,98.35
2023-04-02T19:25:37.995Z,95.31
2023-04-02T19:29:01.753Z,92.60
2023-04-02T19:32:11.520Z,92.55
2023-04-02T19:35:24.107Z,92.87
2023-04-02T19:38:45.440Z,89.89
2023-04-02T19:42:08.819Z,90.93
2023-04-02T19:45:30.576Z,88.14
2023-04-02T19:48:54.606Z,89.51
2023-04-02T19:51:59.288Z,91.60
2023-04-02T19:55:03.460Z,89.22
2023-04-02T19:58:17.607Z,88.70
2023-04-02T20:01:24.828Z,89.41
2023-04-02T20:04:28.734Z,89.32
2023-04-02T20:07:32.953Z,88.41
2023-04-02T20:10:36.320Z,87.80
2023-04-02T20:13:40.100Z,89.41
2023-04-02T20:16:44.643Z,88.27
2023-04-02T20:19:48.480Z,88.17
2023-04-02T20:22:51.660Z,87.36
2023-04-02T20:25:56.619Z,88.21
2023-04-02T20:29:00.012Z,87.29
2023-04-02T20:32:03.669Z,87.26
2023-04-02T20:35:07.134Z,87.18
2023-04-02T20:38:10.830Z,87.32
2023-04-02T20:41:16.187Z,86.50
2023-04-02T20:44:19.190Z,86.31
2023-04-02T20:47:24.056Z,87.07
2023-04-02T20:50:26.948Z,86.94
2023-04-02T20:53:30.561Z,86.75
2023-04-02T20:56:33.790Z,86.73
2023-04-02T20:59:36.604Z,89.42
2023-04-02T21:02:39.237Z,87.00
2023-04-02T21:05:46.175Z,87.14
2023-04-02T21:08:49.628Z,87.68
2023-04-02T21:11:52.761Z,89.69
2023-04-02T21:15:01.747Z,90.44
2023-04-02T21:18:05.967Z,90.29
2023-04-02T21:21:09.086Z,89.19
2023-04-02T21:24:13.623Z,90.45
2023-04-02T21:27:17.604Z,89.30
2023-04-02T21:30:20.286Z,89.10
2023-04-02T21:33:24.633Z,91.13
2023-04-02T21:36:29.293Z,90.37
2023-04-02T21:39:34.483Z,90.60
2023-04-02T21:42:37.966Z,91.38
2023-04-02T21:45:40.824Z,92.74
2023-04-02T21:48:43.569Z,91.52
2023-04-02T21:51:48.066Z,89.19
2023-04-02T21:54:51.616Z,88.85
2023-04-02T21:57:54.592Z,89.50
2023-04-02T22:00:57.304Z,88.40
2023-04-02T22:04:01.596Z,87.15
2023-04-02T22:07:04.485Z,86.79
2023-04-02T22:10:09.407Z,86.99
2023-04-02T22:13:13.108Z,87.58
2023-04-02T22:16:17.784Z,86.18
2023-04-02T22:19:21.383Z,86.21
2023-04-02T22:22:23.941Z,84.63
2023-04-02T22:25:27.976Z,84.90
2023-04-02T22:28:30.900Z,84.66
2023-04-02T22:31:34.174Z,85.74
2023-04-02T22:34:39.500Z,84.71
2023-04-02T22:37:43.749Z,84.71
2023-04-02T22:40:47.018Z,83.54
2023-04-02T22:43:50.221Z,82.95
2023-04-02T22:46:53.201Z,83.91
2023-04-02T22:49:56.512Z,84.43
2023-04-02T22:52:59.491Z,83.97
2023-04-02T22:56:03.989Z,86.02
2023-04-02T22:59:07.205Z,84.47
2023-04-02T23:02:10.587Z,85.96
2023-04-02T23:05:14.360Z,84.29
2023-04-02T23:08:16.877Z,83.10
2023-04-02T23:11:24.668Z,84.28
2023-04-02T23:14:27.701Z,80.53
2023-04-02T23:17:31.308Z,81.58
2023-04-02T23:20:35.690Z,82.56
2023-04-02T23:23:39.224Z,82.52
2023-04-02T23:26:42.336Z,80.18
2023-04-02T23:29:45.402Z,81.76
2023-04-02T23:32:50.220Z,82.47
2023-04-02T23:35:54.043Z,81.91
2023-04-02T23:38:58.138Z,84.71
2023-04-02T23:42:01.698Z,82.22
2023-04-02T23:45:05.060Z,84.97
2023-04-02T23:48:07.806Z,81.26
2023-04-02T23:51:10.960Z,82.04
2023-04-02T23:54:14.771Z,80.17
2023-04-02T23:57:18.057Z,80.92
